sensor_id;sensor_type;location;lat;lon;timestamp;temperature;humidity
38684;DHT22;24910;53.248;-6.134;2023-10-13T00:01:12;14.60;87.10
38684;DHT22;24910;53.248;-6.134;2023-10-13T00:03:41;14.60;87.10
38684;DHT22;24910;53.248;-6.134;2023-10-13T00:06:12;14.60;87.10
38684;DHT22;24910;53.248;-6.134;2023-10-13T00:08:43;14.60;87.20
38684;DHT22;24910;53.248;-6.134;2023-10-13T00:11:14;14.60;87.20
38684;DHT22;24910;53.248;-6.134;2023-10-13T00:13:43;14.60;87.20
38684;DHT22;24910;53.248;-6.134;2023-10-13T00:16:18;14.60;87.10
38684;DHT22;24910;53.248;-6.134;2023-10-13T00:18:51;14.60;87.10
38684;DHT22;24910;53.248;-6.134;2023-10-13T00:21:24;14.60;87.20
38684;DHT22;24910;53.248;-6.134;2023-10-13T00:24:00;14.70;87.20
38684;DHT22;24910;53.248;-6.134;2023-10-13T00:26:34;14.70;87.20
38684;DHT22;24910;53.248;-6.134;2023-10-13T00:29:05;14.70;87.20
38684;DHT22;24910;53.248;-6.134;2023-10-13T00:31:44;14.60;87.20
38684;DHT22;24910;53.248;-6.134;2023-10-13T00:34:17;14.60;87.20
38684;DHT22;24910;53.248;-6.134;2023-10-13T00:36:55;14.60;87.20
38684;DHT22;24910;53.248;-6.134;2023-10-13T00:39:38;14.60;87.20
38684;DHT22;24910;53.248;-6.134;2023-10-13T00:42:12;14.70;87.40
38684;DHT22;24910;53.248;-6.134;2023-10-13T00:44:48;14.70;87.30
38684;DHT22;24910;53.248;-6.134;2023-10-13T00:47:18;14.70;87.30
38684;DHT22;24910;53.248;-6.134;2023-10-13T00:50:05;14.70;87.30
38684;DHT22;24910;53.248;-6.134;2023-10-13T00:52:40;14.70;87.40
38684;DHT22;24910;53.248;-6.134;2023-10-13T00:55:14;14.70;87.50
38684;DHT22;24910;53.248;-6.134;2023-10-13T00:57:45;14.60;87.40
38684;DHT22;24910;53.248;-6.134;2023-10-13T01:00:15;14.60;87.50
38684;DHT22;24910;53.248;-6.134;2023-10-13T01:02:48;14.60;87.50
38684;DHT22;24910;53.248;-6.134;2023-10-13T01:05:25;14.70;87.50
38684;DHT22;24910;53.248;-6.134;2023-10-13T01:07:56;14.70;87.50
38684;DHT22;24910;53.248;-6.134;2023-10-13T01:10:29;14.70;87.60
38684;DHT22;24910;53.248;-6.134;2023-10-13T01:13:00;14.60;87.50
38684;DHT22;24910;53.248;-6.134;2023-10-13T01:15:32;14.70;87.60
38684;DHT22;24910;53.248;-6.134;2023-10-13T01:18:08;14.70;87.60
38684;DHT22;24910;53.248;-6.134;2023-10-13T01:20:39;14.70;87.60
38684;DHT22;24910;53.248;-6.134;2023-10-13T01:23:14;14.70;87.60
38684;DHT22;24910;53.248;-6.134;2023-10-13T01:25:47;14.70;87.70
38684;DHT22;24910;53.248;-6.134;2023-10-13T01:28:17;14.70;87.80
38684;DHT22;24910;53.248;-6.134;2023-10-13T01:30:45;14.70;87.70
38684;DHT22;24910;53.248;-6.134;2023-10-13T01:33:18;14.70;87.70
38684;DHT22;24910;53.248;-6.134;2023-10-13T01:35:55;14.70;87.80
38684;DHT22;24910;53.248;-6.134;2023-10-13T01:38:28;14.60;87.70
38684;DHT22;24910;53.248;-6.134;2023-10-13T01:41:04;14.60;87.80
38684;DHT22;24910;53.248;-6.134;2023-10-13T01:43:39;14.60;87.90
38684;DHT22;24910;53.248;-6.134;2023-10-13T01:46:10;14.60;87.90
38684;DHT22;24910;53.248;-6.134;2023-10-13T01:48:41;14.60;87.90
38684;DHT22;24910;53.248;-6.134;2023-10-13T01:51:11;14.60;87.90
38684;DHT22;24910;53.248;-6.134;2023-10-13T01:53:42;14.60;88.00
38684;DHT22;24910;53.248;-6.134;2023-10-13T01:56:10;14.60;88.00
38684;DHT22;24910;53.248;-6.134;2023-10-13T01:58:40;14.60;88.00
38684;DHT22;24910;53.248;-6.134;2023-10-13T02:01:10;14.60;88.00
38684;DHT22;24910;53.248;-6.134;2023-10-13T02:03:41;14.60;88.10
38684;DHT22;24910;53.248;-6.134;2023-10-13T02:06:14;14.60;88.20
38684;DHT22;24910;53.248;-6.134;2023-10-13T02:08:53;14.60;88.20
38684;DHT22;24910;53.248;-6.134;2023-10-13T02:11:25;14.50;88.30
38684;DHT22;24910;53.248;-6.134;2023-10-13T02:13:54;14.60;89.20
38684;DHT22;24910;53.248;-6.134;2023-10-13T02:16:24;14.60;88.40
38684;DHT22;24910;53.248;-6.134;2023-10-13T02:18:54;14.50;88.40
38684;DHT22;24910;53.248;-6.134;2023-10-13T02:21:22;14.50;88.40
38684;DHT22;24910;53.248;-6.134;2023-10-13T02:24:01;14.60;88.50
38684;DHT22;24910;53.248;-6.134;2023-10-13T02:26:32;14.60;88.40
38684;DHT22;24910;53.248;-6.134;2023-10-13T02:29:07;14.60;88.50
38684;DHT22;24910;53.248;-6.134;2023-10-13T02:31:36;14.50;88.40
38684;DHT22;24910;53.248;-6.134;2023-10-13T02:34:06;14.60;88.50
38684;DHT22;24910;53.248;-6.134;2023-10-13T02:36:36;14.60;88.50
38684;DHT22;24910;53.248;-6.134;2023-10-13T02:39:17;14.50;88.60
38684;DHT22;24910;53.248;-6.134;2023-10-13T02:41:54;14.50;88.70
38684;DHT22;24910;53.248;-6.134;2023-10-13T02:44:23;14.50;89.50
38684;DHT22;24910;53.248;-6.134;2023-10-13T02:46:59;14.50;88.70
38684;DHT22;24910;53.248;-6.134;2023-10-13T02:49:27;14.50;88.70
38684;DHT22;24910;53.248;-6.134;2023-10-13T02:52:00;14.50;88.70
38684;DHT22;24910;53.248;-6.134;2023-10-13T02:54:35;14.50;88.70
38684;DHT22;24910;53.248;-6.134;2023-10-13T02:57:07;14.50;88.70
38684;DHT22;24910;53.248;-6.134;2023-10-13T02:59:36;14.50;88.80
38684;DHT22;24910;53.248;-6.134;2023-10-13T03:02:08;14.50;88.90
38684;DHT22;24910;53.248;-6.134;2023-10-13T03:04:47;14.50;88.90
38684;DHT22;24910;53.248;-6.134;2023-10-13T03:07:17;14.50;88.90
38684;DHT22;24910;53.248;-6.134;2023-10-13T03:10:02;14.50;88.90
38684;DHT22;24910;53.248;-6.134;2023-10-13T03:12:39;14.50;89.00
38684;DHT22;24910;53.248;-6.134;2023-10-13T03:15:08;14.50;89.00
38684;DHT22;24910;53.248;-6.134;2023-10-13T03:17:45;14.50;89.00
38684;DHT22;24910;53.248;-6.134;2023-10-13T03:20:16;14.50;89.00
38684;DHT22;24910;53.248;-6.134;2023-10-13T03:22:53;14.50;89.10
38684;DHT22;24910;53.248;-6.134;2023-10-13T03:25:24;14.50;89.10
38684;DHT22;24910;53.248;-6.134;2023-10-13T03:27:58;14.50;89.20
38684;DHT22;24910;53.248;-6.134;2023-10-13T03:30:38;14.50;89.20
38684;DHT22;24910;53.248;-6.134;2023-10-13T03:33:10;14.50;89.20
38684;DHT22;24910;53.248;-6.134;2023-10-13T03:35:41;14.40;89.20
38684;DHT22;24910;53.248;-6.134;2023-10-13T03:38:13;14.40;89.10
38684;DHT22;24910;53.248;-6.134;2023-10-13T03:40:49;14.40;89.10
38684;DHT22;24910;53.248;-6.134;2023-10-13T03:43:24;14.40;89.20
38684;DHT22;24910;53.248;-6.134;2023-10-13T03:45:56;14.40;89.30
38684;DHT22;24910;53.248;-6.134;2023-10-13T03:48:36;14.40;89.30
38684;DHT22;24910;53.248;-6.134;2023-10-13T03:51:20;14.40;89.40
38684;DHT22;24910;53.248;-6.134;2023-10-13T03:53:49;14.30;89.40
38684;DHT22;24910;53.248;-6.134;2023-10-13T03:56:24;14.30;89.50
38684;DHT22;24910;53.248;-6.134;2023-10-13T03:59:08;14.30;89.50
38684;DHT22;24910;53.248;-6.134;2023-10-13T04:01:47;14.30;89.50
38684;DHT22;24910;53.248;-6.134;2023-10-13T04:04:27;14.30;89.50
38684;DHT22;24910;53.248;-6.134;2023-10-13T04:07:10;14.30;89.50
38684;DHT22;24910;53.248;-6.134;2023-10-13T04:09:56;14.30;89.50
38684;DHT22;24910;53.248;-6.134;2023-10-13T04:12:44;14.30;89.50
38684;DHT22;24910;53.248;-6.134;2023-10-13T04:15:31;14.30;89.50
38684;DHT22;24910;53.248;-6.134;2023-10-13T04:18:11;14.30;89.60
38684;DHT22;24910;53.248;-6.134;2023-10-13T04:21:01;14.30;89.80
38684;DHT22;24910;53.248;-6.134;2023-10-13T04:23:47;14.20;90.00
38684;DHT22;24910;53.248;-6.134;2023-10-13T04:26:36;14.10;90.10
38684;DHT22;24910;53.248;-6.134;2023-10-13T04:29:11;14.00;90.30
38684;DHT22;24910;53.248;-6.134;2023-10-13T04:31:56;14.00;90.40
38684;DHT22;24910;53.248;-6.134;2023-10-13T04:34:28;13.90;90.40
38684;DHT22;24910;53.248;-6.134;2023-10-13T04:37:06;13.90;90.40
38684;DHT22;24910;53.248;-6.134;2023-10-13T04:39:51;13.80;90.50
38684;DHT22;24910;53.248;-6.134;2023-10-13T04:42:25;13.80;90.50
38684;DHT22;24910;53.248;-6.134;2023-10-13T04:45:22;13.80;90.50
38684;DHT22;24910;53.248;-6.134;2023-10-13T04:48:21;13.70;90.60
38684;DHT22;24910;53.248;-6.134;2023-10-13T04:51:00;13.60;90.70
38684;DHT22;24910;53.248;-6.134;2023-10-13T04:54:12;13.60;90.80
38684;DHT22;24910;53.248;-6.134;2023-10-13T04:56:53;13.60;90.80
38684;DHT22;24910;53.248;-6.134;2023-10-13T04:59:48;13.50;90.80
38684;DHT22;24910;53.248;-6.134;2023-10-13T05:02:37;13.50;90.70
38684;DHT22;24910;53.248;-6.134;2023-10-13T05:05:44;13.50;90.80
38684;DHT22;24910;53.248;-6.134;2023-10-13T05:08:27;13.40;90.80
38684;DHT22;24910;53.248;-6.134;2023-10-13T05:11:13;13.40;90.90
38684;DHT22;24910;53.248;-6.134;2023-10-13T05:14:00;13.30;91.00
38684;DHT22;24910;53.248;-6.134;2023-10-13T05:16:48;13.30;91.10
38684;DHT22;24910;53.248;-6.134;2023-10-13T05:19:36;13.30;91.10
38684;DHT22;24910;53.248;-6.134;2023-10-13T05:22:23;13.20;91.20
38684;DHT22;24910;53.248;-6.134;2023-10-13T05:25:10;13.20;91.20
38684;DHT22;24910;53.248;-6.134;2023-10-13T05:27:56;13.10;91.30
38684;DHT22;24910;53.248;-6.134;2023-10-13T05:31:02;13.10;91.30
38684;DHT22;24910;53.248;-6.134;2023-10-13T05:33:49;13.00;91.30
38684;DHT22;24910;53.248;-6.134;2023-10-13T05:36:38;13.10;91.40
38684;DHT22;24910;53.248;-6.134;2023-10-13T05:39:24;13.00;91.30
38684;DHT22;24910;53.248;-6.134;2023-10-13T05:42:11;13.00;91.40
38684;DHT22;24910;53.248;-6.134;2023-10-13T05:44:58;12.90;91.40
38684;DHT22;24910;53.248;-6.134;2023-10-13T05:47:51;12.90;91.50
38684;DHT22;24910;53.248;-6.134;2023-10-13T05:50:33;12.80;91.50
38684;DHT22;24910;53.248;-6.134;2023-10-13T05:53:18;12.80;91.50
38684;DHT22;24910;53.248;-6.134;2023-10-13T05:56:05;12.90;91.40
38684;DHT22;24910;53.248;-6.134;2023-10-13T05:58:51;12.80;91.40
38684;DHT22;24910;53.248;-6.134;2023-10-13T06:01:38;12.80;91.40
38684;DHT22;24910;53.248;-6.134;2023-10-13T06:04:39;12.80;91.40
38684;DHT22;24910;53.248;-6.134;2023-10-13T06:07:26;12.70;91.40
38684;DHT22;24910;53.248;-6.134;2023-10-13T06:10:14;12.60;91.40
38684;DHT22;24910;53.248;-6.134;2023-10-13T06:13:15;12.70;91.30
38684;DHT22;24910;53.248;-6.134;2023-10-13T06:16:05;12.70;91.30
38684;DHT22;24910;53.248;-6.134;2023-10-13T06:18:52;12.70;91.20
38684;DHT22;24910;53.248;-6.134;2023-10-13T06:21:39;12.60;91.20
38684;DHT22;24910;53.248;-6.134;2023-10-13T06:24:25;12.60;91.30
38684;DHT22;24910;53.248;-6.134;2023-10-13T06:27:19;12.50;91.30
38684;DHT22;24910;53.248;-6.134;2023-10-13T06:30:07;12.50;91.20
38684;DHT22;24910;53.248;-6.134;2023-10-13T06:32:36;12.50;91.20
38684;DHT22;24910;53.248;-6.134;2023-10-13T06:35:08;12.50;91.20
38684;DHT22;24910;53.248;-6.134;2023-10-13T06:37:47;12.60;91.20
38684;DHT22;24910;53.248;-6.134;2023-10-13T06:40:16;12.60;91.10
38684;DHT22;24910;53.248;-6.134;2023-10-13T06:42:55;12.60;91.10
38684;DHT22;24910;53.248;-6.134;2023-10-13T06:45:43;12.60;91.00
38684;DHT22;24910;53.248;-6.134;2023-10-13T06:48:18;12.70;90.90
38684;DHT22;24910;53.248;-6.134;2023-10-13T06:50:48;12.70;90.80
38684;DHT22;24910;53.248;-6.134;2023-10-13T06:53:20;12.70;90.80
38684;DHT22;24910;53.248;-6.134;2023-10-13T06:55:49;12.80;90.70
38684;DHT22;24910;53.248;-6.134;2023-10-13T06:58:22;12.80;90.70
38684;DHT22;24910;53.248;-6.134;2023-10-13T07:00:52;12.80;90.70
38684;DHT22;24910;53.248;-6.134;2023-10-13T07:03:22;12.80;90.70
38684;DHT22;24910;53.248;-6.134;2023-10-13T07:05:53;12.80;90.60
38684;DHT22;24910;53.248;-6.134;2023-10-13T07:08:27;12.80;90.60
38684;DHT22;24910;53.248;-6.134;2023-10-13T07:10:59;12.90;90.60
38684;DHT22;24910;53.248;-6.134;2023-10-13T07:13:34;12.80;90.50
38684;DHT22;24910;53.248;-6.134;2023-10-13T07:16:06;12.80;90.60
38684;DHT22;24910;53.248;-6.134;2023-10-13T07:18:55;12.80;90.60
38684;DHT22;24910;53.248;-6.134;2023-10-13T07:21:33;12.80;90.60
38684;DHT22;24910;53.248;-6.134;2023-10-13T07:24:03;12.80;90.60
38684;DHT22;24910;53.248;-6.134;2023-10-13T07:26:39;12.70;90.60
38684;DHT22;24910;53.248;-6.134;2023-10-13T07:29:15;12.70;90.60
38684;DHT22;24910;53.248;-6.134;2023-10-13T07:31:44;12.80;90.60
38684;DHT22;24910;53.248;-6.134;2023-10-13T07:34:14;12.80;90.60
38684;DHT22;24910;53.248;-6.134;2023-10-13T07:36:53;12.80;90.50
38684;DHT22;24910;53.248;-6.134;2023-10-13T07:39:28;12.80;90.50
38684;DHT22;24910;53.248;-6.134;2023-10-13T07:42:03;12.80;90.50
38684;DHT22;24910;53.248;-6.134;2023-10-13T07:44:44;12.80;90.50
38684;DHT22;24910;53.248;-6.134;2023-10-13T07:47:15;12.80;90.50
38684;DHT22;24910;53.248;-6.134;2023-10-13T07:49:46;12.80;90.50
38684;DHT22;24910;53.248;-6.134;2023-10-13T07:52:19;12.70;90.50
38684;DHT22;24910;53.248;-6.134;2023-10-13T07:54:58;12.70;90.60
38684;DHT22;24910;53.248;-6.134;2023-10-13T07:57:40;12.70;90.60
38684;DHT22;24910;53.248;-6.134;2023-10-13T08:00:25;12.70;90.60
38684;DHT22;24910;53.248;-6.134;2023-10-13T08:02:58;12.70;90.50
38684;DHT22;24910;53.248;-6.134;2023-10-13T08:05:53;12.80;90.50
38684;DHT22;24910;53.248;-6.134;2023-10-13T08:08:26;12.80;90.40
38684;DHT22;24910;53.248;-6.134;2023-10-13T08:11:03;12.80;90.40
38684;DHT22;24910;53.248;-6.134;2023-10-13T08:13:39;12.80;90.40
38684;DHT22;24910;53.248;-6.134;2023-10-13T08:16:33;12.80;90.50
38684;DHT22;24910;53.248;-6.134;2023-10-13T08:19:19;12.80;90.40
38684;DHT22;24910;53.248;-6.134;2023-10-13T08:21:57;12.80;90.40
38684;DHT22;24910;53.248;-6.134;2023-10-13T08:24:28;12.80;90.40
38684;DHT22;24910;53.248;-6.134;2023-10-13T08:27:19;12.80;90.50
38684;DHT22;24910;53.248;-6.134;2023-10-13T08:30:05;12.80;90.40
38684;DHT22;24910;53.248;-6.134;2023-10-13T08:32:58;12.80;90.50
38684;DHT22;24910;53.248;-6.134;2023-10-13T08:35:45;12.80;90.50
38684;DHT22;24910;53.248;-6.134;2023-10-13T08:38:40;12.80;90.50
38684;DHT22;24910;53.248;-6.134;2023-10-13T08:41:19;12.90;90.50
38684;DHT22;24910;53.248;-6.134;2023-10-13T08:44:02;12.90;90.90
38684;DHT22;24910;53.248;-6.134;2023-10-13T08:46:38;13.00;90.40
38684;DHT22;24910;53.248;-6.134;2023-10-13T08:49:35;13.00;90.40
38684;DHT22;24910;53.248;-6.134;2023-10-13T08:52:14;13.00;90.50
38684;DHT22;24910;53.248;-6.134;2023-10-13T08:54:59;13.10;90.50
38684;DHT22;24910;53.248;-6.134;2023-10-13T08:57:54;13.10;90.50
38684;DHT22;24910;53.248;-6.134;2023-10-13T09:00:32;13.30;90.50
38684;DHT22;24910;53.248;-6.134;2023-10-13T09:03:16;13.40;90.50
38684;DHT22;24910;53.248;-6.134;2023-10-13T09:05:59;13.50;90.50
38684;DHT22;24910;53.248;-6.134;2023-10-13T09:08:34;13.50;90.40
38684;DHT22;24910;53.248;-6.134;2023-10-13T09:11:12;13.50;90.40
38684;DHT22;24910;53.248;-6.134;2023-10-13T09:13:42;13.50;90.50
38684;DHT22;24910;53.248;-6.134;2023-10-13T09:16:15;13.60;90.60
38684;DHT22;24910;53.248;-6.134;2023-10-13T09:19:07;13.60;90.50
38684;DHT22;24910;53.248;-6.134;2023-10-13T09:21:41;13.70;90.40
38684;DHT22;24910;53.248;-6.134;2023-10-13T09:24:25;13.70;90.40
38684;DHT22;24910;53.248;-6.134;2023-10-13T09:27:00;13.60;90.40
38684;DHT22;24910;53.248;-6.134;2023-10-13T09:29:30;13.60;90.40
38684;DHT22;24910;53.248;-6.134;2023-10-13T09:32:07;13.60;90.40
38684;DHT22;24910;53.248;-6.134;2023-10-13T09:34:40;13.50;90.40
38684;DHT22;24910;53.248;-6.134;2023-10-13T09:37:14;13.60;90.40
38684;DHT22;24910;53.248;-6.134;2023-10-13T09:39:49;13.60;90.40
38684;DHT22;24910;53.248;-6.134;2023-10-13T09:42:22;13.60;90.30
38684;DHT22;24910;53.248;-6.134;2023-10-13T09:44:51;13.60;90.30
38684;DHT22;24910;53.248;-6.134;2023-10-13T09:47:24;13.60;90.30
38684;DHT22;24910;53.248;-6.134;2023-10-13T09:50:00;13.60;90.30
38684;DHT22;24910;53.248;-6.134;2023-10-13T09:52:45;13.60;90.30
38684;DHT22;24910;53.248;-6.134;2023-10-13T09:55:21;13.70;90.30
38684;DHT22;24910;53.248;-6.134;2023-10-13T09:58:00;13.80;90.30
38684;DHT22;24910;53.248;-6.134;2023-10-13T10:00:47;13.80;90.30
38684;DHT22;24910;53.248;-6.134;2023-10-13T10:03:24;13.90;90.30
38684;DHT22;24910;53.248;-6.134;2023-10-13T10:06:08;14.00;90.20
38684;DHT22;24910;53.248;-6.134;2023-10-13T10:08:46;14.10;90.10
38684;DHT22;24910;53.248;-6.134;2023-10-13T10:11:54;14.10;90.00
38684;DHT22;24910;53.248;-6.134;2023-10-13T10:14:36;14.20;90.00
38684;DHT22;24910;53.248;-6.134;2023-10-13T10:17:10;14.20;90.10
38684;DHT22;24910;53.248;-6.134;2023-10-13T10:19:49;14.20;90.00
38684;DHT22;24910;53.248;-6.134;2023-10-13T10:22:26;14.20;90.00
38684;DHT22;24910;53.248;-6.134;2023-10-13T10:25:03;14.30;90.00
38684;DHT22;24910;53.248;-6.134;2023-10-13T10:27:55;14.30;90.00
38684;DHT22;24910;53.248;-6.134;2023-10-13T10:30:27;14.40;90.00
38684;DHT22;24910;53.248;-6.134;2023-10-13T10:32:57;14.60;89.80
38684;DHT22;24910;53.248;-6.134;2023-10-13T10:35:28;14.70;89.70
38684;DHT22;24910;53.248;-6.134;2023-10-13T10:38:08;14.80;89.50
38684;DHT22;24910;53.248;-6.134;2023-10-13T10:40:52;14.80;89.40
38684;DHT22;24910;53.248;-6.134;2023-10-13T10:43:27;15.00;89.30
38684;DHT22;24910;53.248;-6.134;2023-10-13T10:46:01;15.10;88.90
38684;DHT22;24910;53.248;-6.134;2023-10-13T10:48:31;15.20;88.90
38684;DHT22;24910;53.248;-6.134;2023-10-13T10:51:02;15.30;88.90
38684;DHT22;24910;53.248;-6.134;2023-10-13T10:53:42;15.40;88.60
38684;DHT22;24910;53.248;-6.134;2023-10-13T10:56:18;15.50;88.50
38684;DHT22;24910;53.248;-6.134;2023-10-13T10:58:56;15.60;88.40
38684;DHT22;24910;53.248;-6.134;2023-10-13T11:01:27;15.60;88.30
38684;DHT22;24910;53.248;-6.134;2023-10-13T11:04:04;15.50;87.70
38684;DHT22;24910;53.248;-6.134;2023-10-13T11:06:37;15.50;87.60
38684;DHT22;24910;53.248;-6.134;2023-10-13T11:09:11;15.40;87.70
38684;DHT22;24910;53.248;-6.134;2023-10-13T11:12:11;15.40;87.70
38684;DHT22;24910;53.248;-6.134;2023-10-13T11:14:45;15.30;87.70
38684;DHT22;24910;53.248;-6.134;2023-10-13T11:17:21;15.30;87.50
38684;DHT22;24910;53.248;-6.134;2023-10-13T11:19:54;15.20;87.40
38684;DHT22;24910;53.248;-6.134;2023-10-13T11:22:24;15.30;87.20
38684;DHT22;24910;53.248;-6.134;2023-10-13T11:25:02;15.30;87.20
38684;DHT22;24910;53.248;-6.134;2023-10-13T11:27:41;15.30;87.00
38684;DHT22;24910;53.248;-6.134;2023-10-13T11:30:25;15.30;86.80
38684;DHT22;24910;53.248;-6.134;2023-10-13T11:32:59;15.30;86.20
38684;DHT22;24910;53.248;-6.134;2023-10-13T11:35:28;15.30;86.10
38684;DHT22;24910;53.248;-6.134;2023-10-13T11:38:17;15.20;86.10
38684;DHT22;24910;53.248;-6.134;2023-10-13T11:40:55;15.10;86.00
38684;DHT22;24910;53.248;-6.134;2023-10-13T11:43:43;15.10;86.10
38684;DHT22;24910;53.248;-6.134;2023-10-13T11:46:34;15.10;86.10
38684;DHT22;24910;53.248;-6.134;2023-10-13T11:49:32;15.10;86.10
38684;DHT22;24910;53.248;-6.134;2023-10-13T11:52:05;15.10;85.70
38684;DHT22;24910;53.248;-6.134;2023-10-13T11:54:46;15.00;85.60
38684;DHT22;24910;53.248;-6.134;2023-10-13T11:57:16;15.10;85.60
38684;DHT22;24910;53.248;-6.134;2023-10-13T11:59:50;15.10;85.40
38684;DHT22;24910;53.248;-6.134;2023-10-13T12:02:24;15.10;84.70
38684;DHT22;24910;53.248;-6.134;2023-10-13T12:05:11;15.10;84.70
38684;DHT22;24910;53.248;-6.134;2023-10-13T12:07:45;15.20;84.70
38684;DHT22;24910;53.248;-6.134;2023-10-13T12:10:16;15.20;84.60
38684;DHT22;24910;53.248;-6.134;2023-10-13T12:13:01;15.20;84.60
38684;DHT22;24910;53.248;-6.134;2023-10-13T12:15:37;15.10;83.90
38684;DHT22;24910;53.248;-6.134;2023-10-13T12:18:17;15.10;83.90
38684;DHT22;24910;53.248;-6.134;2023-10-13T12:20:47;15.10;84.10
38684;DHT22;24910;53.248;-6.134;2023-10-13T12:23:17;15.10;83.90
38684;DHT22;24910;53.248;-6.134;2023-10-13T12:25:48;15.10;84.00
38684;DHT22;24910;53.248;-6.134;2023-10-13T12:28:26;15.10;84.10
38684;DHT22;24910;53.248;-6.134;2023-10-13T12:31:03;15.10;83.90
38684;DHT22;24910;53.248;-6.134;2023-10-13T12:33:35;15.10;83.60
38684;DHT22;24910;53.248;-6.134;2023-10-13T12:36:09;15.10;83.70
38684;DHT22;24910;53.248;-6.134;2023-10-13T12:38:39;15.10;83.30
38684;DHT22;24910;53.248;-6.134;2023-10-13T12:41:39;15.10;83.20
38684;DHT22;24910;53.248;-6.134;2023-10-13T12:44:26;15.10;82.90
38684;DHT22;24910;53.248;-6.134;2023-10-13T12:47:17;15.10;82.90
38684;DHT22;24910;53.248;-6.134;2023-10-13T12:50:04;15.20;82.70
38684;DHT22;24910;53.248;-6.134;2023-10-13T12:52:42;15.10;82.60
38684;DHT22;24910;53.248;-6.134;2023-10-13T12:55:13;15.10;82.60
38684;DHT22;24910;53.248;-6.134;2023-10-13T12:57:47;15.10;82.30
38684;DHT22;24910;53.248;-6.134;2023-10-13T13:00:16;15.00;82.00
38684;DHT22;24910;53.248;-6.134;2023-10-13T13:02:50;15.00;82.20
38684;DHT22;24910;53.248;-6.134;2023-10-13T13:05:24;15.00;82.00
38684;DHT22;24910;53.248;-6.134;2023-10-13T13:07:57;15.00;82.20
38684;DHT22;24910;53.248;-6.134;2023-10-13T13:10:27;15.00;81.90
38684;DHT22;24910;53.248;-6.134;2023-10-13T13:13:04;15.00;81.90
38684;DHT22;24910;53.248;-6.134;2023-10-13T13:15:34;15.00;81.70
38684;DHT22;24910;53.248;-6.134;2023-10-13T13:18:05;15.00;81.40
38684;DHT22;24910;53.248;-6.134;2023-10-13T13:20:40;15.00;81.20
38684;DHT22;24910;53.248;-6.134;2023-10-13T13:23:22;14.90;81.00
38684;DHT22;24910;53.248;-6.134;2023-10-13T13:25:54;14.90;81.10
38684;DHT22;24910;53.248;-6.134;2023-10-13T13:28:26;14.90;81.10
38684;DHT22;24910;53.248;-6.134;2023-10-13T13:30:57;14.80;81.10
38684;DHT22;24910;53.248;-6.134;2023-10-13T13:33:28;14.80;80.70
38684;DHT22;24910;53.248;-6.134;2023-10-13T13:36:01;14.80;81.10
38684;DHT22;24910;53.248;-6.134;2023-10-13T13:38:32;14.80;80.90
38684;DHT22;24910;53.248;-6.134;2023-10-13T13:41:01;14.80;81.00
38684;DHT22;24910;53.248;-6.134;2023-10-13T13:43:32;14.70;81.10
38684;DHT22;24910;53.248;-6.134;2023-10-13T13:46:07;14.70;81.20
38684;DHT22;24910;53.248;-6.134;2023-10-13T13:48:40;14.70;81.20
38684;DHT22;24910;53.248;-6.134;2023-10-13T13:51:10;14.70;81.20
38684;DHT22;24910;53.248;-6.134;2023-10-13T13:53:43;14.70;81.20
38684;DHT22;24910;53.248;-6.134;2023-10-13T13:56:16;14.70;81.20
38684;DHT22;24910;53.248;-6.134;2023-10-13T13:58:47;14.70;81.20
38684;DHT22;24910;53.248;-6.134;2023-10-13T14:01:18;14.70;81.10
38684;DHT22;24910;53.248;-6.134;2023-10-13T14:03:50;14.70;81.00
38684;DHT22;24910;53.248;-6.134;2023-10-13T14:06:21;14.70;80.80
38684;DHT22;24910;53.248;-6.134;2023-10-13T14:08:55;14.70;80.30
38684;DHT22;24910;53.248;-6.134;2023-10-13T14:11:30;14.70;80.40
38684;DHT22;24910;53.248;-6.134;2023-10-13T14:14:17;14.60;80.50
38684;DHT22;24910;53.248;-6.134;2023-10-13T14:17:01;14.60;80.40
38684;DHT22;24910;53.248;-6.134;2023-10-13T14:19:38;14.60;80.30
38684;DHT22;24910;53.248;-6.134;2023-10-13T14:22:09;14.60;80.40
38684;DHT22;24910;53.248;-6.134;2023-10-13T14:24:41;14.60;80.40
38684;DHT22;24910;53.248;-6.134;2023-10-13T14:27:15;14.60;80.40
38684;DHT22;24910;53.248;-6.134;2023-10-13T14:29:47;14.60;80.30
38684;DHT22;24910;53.248;-6.134;2023-10-13T14:32:21;14.50;80.20
38684;DHT22;24910;53.248;-6.134;2023-10-13T14:34:56;14.50;80.20
38684;DHT22;24910;53.248;-6.134;2023-10-13T14:37:28;14.60;80.00
38684;DHT22;24910;53.248;-6.134;2023-10-13T14:39:59;14.50;79.90
38684;DHT22;24910;53.248;-6.134;2023-10-13T14:42:30;14.50;80.00
38684;DHT22;24910;53.248;-6.134;2023-10-13T14:45:04;14.50;80.10
38684;DHT22;24910;53.248;-6.134;2023-10-13T14:47:40;14.50;79.70
38684;DHT22;24910;53.248;-6.134;2023-10-13T14:50:12;14.50;79.60
38684;DHT22;24910;53.248;-6.134;2023-10-13T14:52:48;14.60;79.60
38684;DHT22;24910;53.248;-6.134;2023-10-13T14:55:19;14.60;79.70
38684;DHT22;24910;53.248;-6.134;2023-10-13T14:57:50;14.50;79.40
38684;DHT22;24910;53.248;-6.134;2023-10-13T15:00:19;14.50;79.50
38684;DHT22;24910;53.248;-6.134;2023-10-13T15:02:54;14.50;79.50
38684;DHT22;24910;53.248;-6.134;2023-10-13T15:05:25;14.50;79.50
38684;DHT22;24910;53.248;-6.134;2023-10-13T15:07:57;14.50;79.50
38684;DHT22;24910;53.248;-6.134;2023-10-13T15:10:27;14.50;79.40
38684;DHT22;24910;53.248;-6.134;2023-10-13T15:12:56;14.50;79.50
38684;DHT22;24910;53.248;-6.134;2023-10-13T15:15:28;14.50;79.40
38684;DHT22;24910;53.248;-6.134;2023-10-13T15:18:00;14.50;79.50
38684;DHT22;24910;53.248;-6.134;2023-10-13T15:20:30;14.50;79.50
38684;DHT22;24910;53.248;-6.134;2023-10-13T15:23:00;14.50;79.60
38684;DHT22;24910;53.248;-6.134;2023-10-13T15:25:29;14.50;79.60
38684;DHT22;24910;53.248;-6.134;2023-10-13T15:28:07;14.50;79.50
38684;DHT22;24910;53.248;-6.134;2023-10-13T15:30:37;14.50;79.50
38684;DHT22;24910;53.248;-6.134;2023-10-13T15:33:19;14.50;79.60
38684;DHT22;24910;53.248;-6.134;2023-10-13T15:35:50;14.50;79.60
38684;DHT22;24910;53.248;-6.134;2023-10-13T15:38:19;14.50;79.50
38684;DHT22;24910;53.248;-6.134;2023-10-13T15:40:50;14.50;79.60
38684;DHT22;24910;53.248;-6.134;2023-10-13T15:43:23;14.50;79.50
38684;DHT22;24910;53.248;-6.134;2023-10-13T15:45:53;14.50;79.50
38684;DHT22;24910;53.248;-6.134;2023-10-13T15:48:25;14.30;79.60
38684;DHT22;24910;53.248;-6.134;2023-10-13T15:50:56;14.40;79.80
38684;DHT22;24910;53.248;-6.134;2023-10-13T15:53:26;14.30;79.80
38684;DHT22;24910;53.248;-6.134;2023-10-13T15:55:55;14.30;79.90
38684;DHT22;24910;53.248;-6.134;2023-10-13T15:58:24;14.30;79.70
38684;DHT22;24910;53.248;-6.134;2023-10-13T16:00:54;14.20;79.20
38684;DHT22;24910;53.248;-6.134;2023-10-13T16:03:24;14.20;78.90
38684;DHT22;24910;53.248;-6.134;2023-10-13T16:05:56;14.20;78.90
38684;DHT22;24910;53.248;-6.134;2023-10-13T16:08:27;14.20;78.90
38684;DHT22;24910;53.248;-6.134;2023-10-13T16:11:08;14.20;78.90
38684;DHT22;24910;53.248;-6.134;2023-10-13T16:13:41;14.20;78.90
38684;DHT22;24910;53.248;-6.134;2023-10-13T16:16:14;14.20;79.00